createdAt,value
2023-01-18T00:00:18.438Z,65.00
2023-01-18T00:02:47.078Z,64.90
2023-01-18T00:05:15.238Z,65.00
2023-01-18T00:07:42.993Z,65.10
2023-01-18T00:10:11.555Z,65.10
2023-01-18T00:12:40.581Z,65.10
2023-01-18T00:15:09.736Z,64.90
2023-01-18T00:17:47.451Z,65.00
2023-01-18T00:20:15.336Z,65.10
2023-01-18T00:22:43.177Z,65.00
2023-01-18T00:25:11.145Z,65.00
2023-01-18T00:27:41.177Z,65.00
2023-01-18T00:30:10.915Z,65.00
2023-01-18T00:32:38.685Z,65.10
2023-01-18T00:35:08.088Z,65.10
2023-01-18T00:37:36.257Z,65.10
2023-01-18T00:40:06.367Z,65.10
2023-01-18T00:42:52.019Z,65.10
2023-01-18T00:45:21.047Z,65.10
2023-01-18T00:47:48.729Z,65.10
2023-01-18T00:50:16.621Z,65.10
2023-01-18T00:52:46.170Z,65.10
2023-01-18T00:55:14.031Z,65.20
2023-01-18T00:57:42.505Z,65.20
2023-01-18T01:00:15.201Z,65.20
2023-01-18T01:02:44.345Z,65.20
2023-01-18T01:05:35.786Z,65.20
2023-01-18T01:08:03.954Z,65.10
2023-01-18T01:10:31.650Z,65.20
2023-01-18T01:13:17.056Z,65.20
2023-01-18T01:16:02.556Z,65.20
2023-01-18T01:18:49.372Z,65.20
2023-01-18T01:21:34.852Z,65.20
2023-01-18T01:24:20.392Z,65.20
2023-01-18T01:26:48.126Z,65.20
2023-01-18T01:29:16.750Z,65.20
2023-01-18T01:31:44.670Z,65.20
2023-01-18T01:34:14.112Z,65.20
2023-01-18T01:36:41.913Z,65.30
2023-01-18T01:39:10.918Z,65.20
2023-01-18T01:41:39.306Z,65.20
2023-01-18T01:44:40.664Z,65.30
2023-01-18T01:47:13.160Z,65.30
2023-01-18T01:49:45.781Z,65.20
2023-01-18T01:52:17.046Z,65.30
2023-01-18T01:54:49.409Z,65.30
2023-01-18T01:57:21.694Z,65.20
2023-01-18T01:59:54.626Z,65.30
2023-01-18T02:02:22.812Z,65.30
2023-01-18T02:04:55.062Z,65.40
2023-01-18T02:07:24.047Z,65.30
2023-01-18T02:09:53.327Z,65.40
2023-01-18T02:12:21.464Z,65.40
2023-01-18T02:14:49.234Z,65.40
2023-01-18T02:17:32.570Z,65.40
2023-01-18T02:20:41.197Z,65.40
2023-01-18T02:23:33.097Z,65.40
2023-01-18T02:26:23.681Z,65.40
2023-01-18T02:28:59.168Z,65.40
2023-01-18T02:31:29.656Z,65.40
2023-01-18T02:34:02.873Z,65.40
2023-01-18T02:36:37.329Z,65.50
2023-01-18T02:39:11.342Z,65.50
2023-01-18T02:42:03.093Z,65.50
2023-01-18T02:44:56.256Z,65.60
2023-01-18T02:47:25.411Z,65.60
2023-01-18T02:49:53.130Z,65.60
2023-01-18T02:52:40.157Z,65.50
2023-01-18T02:55:12.850Z,65.50
2023-01-18T02:57:41.253Z,65.60
2023-01-18T03:00:17.398Z,65.60
2023-01-18T03:02:46.715Z,65.50
2023-01-18T03:05:14.898Z,65.70
2023-01-18T03:07:46.758Z,65.70
2023-01-18T03:10:15.964Z,65.70
2023-01-18T03:12:53.283Z,65.70
2023-01-18T03:15:29.420Z,65.70
2023-01-18T03:18:00.195Z,65.70
2023-01-18T03:20:31.987Z,65.60
2023-01-18T03:23:20.477Z,65.70
2023-01-18T03:25:51.334Z,65.70
2023-01-18T03:28:41.118Z,65.70
2023-01-18T03:31:30.604Z,65.60
2023-01-18T03:34:01.567Z,65.70
2023-01-18T03:36:32.611Z,65.70
2023-01-18T03:39:03.165Z,65.70
2023-01-18T03:41:33.843Z,65.70
2023-01-18T03:44:05.548Z,65.60
2023-01-18T03:46:35.485Z,65.70
2023-01-18T03:49:03.454Z,65.70
2023-01-18T03:51:47.100Z,65.70
2023-01-18T03:54:20.992Z,65.70
2023-01-18T03:56:54.772Z,65.70
2023-01-18T03:59:22.567Z,65.70
2023-01-18T04:01:51.643Z,65.70
2023-01-18T04:04:19.387Z,65.70
2023-01-18T04:06:47.144Z,65.70
2023-01-18T04:09:14.862Z,65.70
2023-01-18T04:11:42.588Z,65.70
2023-01-18T04:14:10.308Z,65.70
2023-01-18T04:16:37.999Z,65.70
2023-01-18T04:19:08.601Z,65.70
2023-01-18T04:21:36.338Z,65.70
2023-01-18T04:24:04.055Z,65.70
2023-01-18T04:26:34.053Z,65.70
2023-01-18T04:29:02.017Z,65.70
2023-01-18T04:31:29.928Z,66.50
2023-01-18T04:33:57.659Z,65.80
2023-01-18T04:36:28.237Z,65.70
2023-01-18T04:38:57.233Z,65.70
2023-01-18T04:41:25.163Z,65.70
2023-01-18T04:43:52.925Z,65.80
2023-01-18T04:46:20.694Z,65.70
2023-01-18T04:48:51.439Z,65.70
2023-01-18T04:51:19.617Z,65.70
2023-01-18T04:53:48.857Z,65.70
2023-01-18T04:56:17.151Z,65.60
2023-01-18T04:58:45.255Z,65.80
2023-01-18T05:01:14.086Z,65.70
2023-01-18T05:03:41.897Z,65.70
2023-01-18T05:06:11.315Z,65.70
2023-01-18T05:08:40.871Z,65.60
2023-01-18T05:11:12.640Z,65.60
2023-01-18T05:13:40.982Z,65.60
2023-01-18T05:16:13.405Z,65.60
2023-01-18T05:18:41.095Z,65.60
2023-01-18T05:21:08.868Z,65.50
2023-01-18T05:23:36.595Z,65.40
2023-01-18T05:26:04.893Z,65.40
2023-01-18T05:28:33.923Z,65.40
2023-01-18T05:31:01.629Z,65.40
2023-01-18T05:33:29.342Z,65.30
2023-01-18T05:35:57.050Z,65.20
2023-01-18T05:38:25.126Z,65.20
2023-01-18T05:40:54.662Z,65.20
2023-01-18T05:43:25.969Z,65.10
2023-01-18T05:45:55.620Z,65.00
2023-01-18T05:48:24.186Z,65.00
2023-01-18T05:50:52.348Z,64.90
2023-01-18T05:53:21.924Z,64.90
2023-01-18T05:55:57.839Z,64.80
2023-01-18T05:58:25.842Z,64.80
2023-01-18T06:00:54.986Z,64.80
2023-01-18T06:03:23.562Z,64.70
2023-01-18T06:05:51.572Z,64.90
2023-01-18T06:08:20.365Z,65.30
2023-01-18T06:10:54.223Z,65.70
2023-01-18T06:13:22.465Z,66.10
2023-01-18T06:15:50.286Z,66.10
2023-01-18T06:18:19.306Z,66.20
2023-01-18T06:20:46.986Z,66.20
2023-01-18T06:23:14.868Z,66.30
2023-01-18T06:25:42.559Z,66.30
2023-01-18T06:28:10.271Z,66.40
2023-01-18T06:30:38.023Z,66.40
2023-01-18T06:33:06.878Z,66.40
2023-01-18T06:35:36.940Z,66.50
2023-01-18T06:38:05.608Z,66.40
2023-01-18T06:40:33.389Z,66.40
2023-01-18T06:43:01.587Z,66.40
2023-01-18T06:45:29.700Z,66.40
2023-01-18T06:47:57.470Z,66.30
2023-01-18T06:50:25.720Z,66.20
2023-01-18T06:52:55.676Z,66.10
2023-01-18T06:55:23.630Z,66.00
2023-01-18T06:57:51.294Z,65.90
2023-01-18T07:00:19.846Z,65.90
2023-01-18T07:02:47.543Z,65.80
2023-01-18T07:05:15.323Z,65.70
2023-01-18T07:07:43.031Z,65.70
2023-01-18T07:10:16.109Z,65.60
2023-01-18T07:12:48.410Z,65.50
2023-01-18T07:15:21.815Z,65.40
2023-01-18T07:17:50.448Z,65.40
2023-01-18T07:20:19.760Z,65.40
2023-01-18T07:22:52.384Z,65.30
2023-01-18T07:25:22.524Z,65.30
2023-01-18T07:27:50.898Z,65.20
2023-01-18T07:30:19.166Z,65.20
2023-01-18T07:32:49.866Z,65.10
2023-01-18T07:35:18.451Z,65.10
2023-01-18T07:37:49.377Z,65.00
2023-01-18T07:40:17.950Z,64.90
2023-01-18T07:42:46.994Z,64.80
2023-01-18T07:45:14.803Z,64.90
2023-01-18T07:47:42.903Z,64.90
2023-01-18T07:50:12.254Z,64.80
2023-01-18T07:52:39.931Z,64.70
2023-01-18T07:55:08.161Z,64.80
2023-01-18T07:57:35.930Z,64.70
2023-01-18T08:00:07.117Z,64.70
2023-01-18T08:02:41.405Z,64.60
2023-01-18T08:05:10.789Z,64.60
2023-01-18T08:07:38.655Z,64.60
2023-01-18T08:10:06.867Z,64.50
2023-01-18T08:12:34.665Z,64.50
2023-01-18T08:15:02.383Z,64.40
2023-01-18T08:17:31.411Z,64.40
2023-01-18T08:19:59.110Z,64.30
2023-01-18T08:22:26.821Z,64.40
2023-01-18T08:24:54.590Z,64.30
2023-01-18T08:27:22.481Z,64.30
2023-01-18T08:29:50.222Z,64.30
2023-01-18T08:32:18.064Z,64.30
2023-01-18T08:34:47.136Z,64.30
2023-01-18T08:37:14.852Z,64.30
2023-01-18T08:39:42.571Z,64.20
2023-01-18T08:42:12.323Z,64.10
2023-01-18T08:44:40.021Z,64.20
2023-01-18T08:47:07.834Z,64.00
2023-01-18T08:49:35.699Z,64.10
2023-01-18T08:52:04.884Z,64.10
2023-01-18T08:54:32.618Z,64.00
2023-01-18T08:57:01.297Z,64.10
2023-01-18T08:59:29.180Z,63.90
2023-01-18T09:01:57.298Z,64.00
2023-01-18T09:04:25.104Z,63.90
2023-01-18T09:06:53.153Z,63.70
2023-01-18T09:09:22.162Z,63.50
2023-01-18T09:11:52.133Z,63.20
2023-01-18T09:14:20.062Z,61.90
2023-01-18T09:16:47.781Z,60.40
2023-01-18T09:19:15.616Z,60.50
2023-01-18T09:21:45.754Z,60.70
2023-01-18T09:24:13.915Z,60.40
2023-01-18T09:26:45.095Z,60.10
2023-01-18T09:29:13.079Z,60.00
2023-01-18T09:31:40.797Z,60.00
2023-01-18T09:34:18.786Z,59.90
2023-01-18T09:36:50.227Z,59.80
2023-01-18T09:39:18.294Z,59.70
2023-01-18T09:41:53.016Z,59.70
2023-01-18T09:44:27.183Z,59.70
2023-01-18T09:46:57.777Z,59.60
2023-01-18T09:49:33.406Z,59.50
2023-01-18T09:52:13.064Z,59.60
2023-01-18T09:54:47.511Z,59.60
2023-01-18T09:57:27.997Z,59.60
2023-01-18T09:59:58.439Z,59.70
2023-01-18T10:02:32.309Z,59.70
2023-01-18T10:05:05.372Z,59.80
2023-01-18T10:07:36.668Z,59.80
2023-01-18T10:10:05.638Z,59.90
2023-01-18T10:12:40.477Z,59.90
2023-01-18T10:15:17.479Z,60.00
2023-01-18T10:17:46.483Z,60.00
2023-01-18T10:20:16.338Z,60.00
2023-01-18T10:22:50.201Z,60.10
2023-01-18T10:25:25.364Z,60.20
2023-01-18T10:28:12.718Z,60.30
2023-01-18T10:30:55.894Z,60.50
2023-01-18T10:33:26.007Z,60.60
2023-01-18T10:35:57.683Z,60.70
2023-01-18T10:38:29.276Z,60.80
2023-01-18T10:40:59.155Z,60.90
2023-01-18T10:43:30.406Z,60.90
2023-01-18T10:45:58.732Z,61.10
2023-01-18T10:48:30.318Z,61.50
2023-01-18T10:51:00.448Z,62.00
2023-01-18T10:53:32.355Z,62.70
2023-01-18T10:56:06.099Z,63.30
2023-01-18T10:58:43.527Z,64.30
2023-01-18T11:01:16.282Z,64.40
2023-01-18T11:03:47.827Z,64.50
2023-01-18T11:06:16.947Z,64.60
2023-01-18T11:08:45.029Z,64.60
2023-01-18T11:11:19.919Z,64.60
2023-01-18T11:13:50.514Z,64.60
2023-01-18T11:16:20.725Z,64.30
2023-01-18T11:19:03.453Z,64.10
2023-01-18T11:21:46.946Z,63.90
2023-01-18T11:24:17.978Z,63.80
2023-01-18T11:26:55.729Z,63.70
2023-01-18T11:29:28.750Z,63.70
2023-01-18T11:32:01.438Z,63.70
2023-01-18T11:34:31.244Z,63.80
2023-01-18T11:37:00.979Z,63.80
2023-01-18T11:39:34.049Z,62.80
2023-01-18T11:42:27.362Z,62.50
2023-01-18T11:45:18.724Z,61.50
2023-01-18T11:47:57.860Z,60.70
2023-01-18T11:50:31.469Z,60.30
2023-01-18T11:53:10.635Z,60.80
2023-01-18T11:55:46.514Z,59.80
2023-01-18T11:58:24.178Z,59.60
2023-01-18T12:01:03.459Z,59.50
2023-01-18T12:03:48.423Z,59.50
2023-01-18T12:06:27.127Z,59.40
2023-01-18T12:09:09.301Z,59.50
2023-01-18T12:11:53.216Z,59.50
2023-01-18T12:14:34.956Z,59.50
2023-01-18T12:17:23.981Z,59.60
2023-01-18T12:20:08.287Z,59.60
2023-01-18T12:23:11.869Z,59.60
2023-01-18T12:26:11.394Z,59.70
2023-01-18T12:29:09.585Z,59.70
2023-01-18T12:31:50.292Z,59.70
2023-01-18T12:34:24.203Z,59.70
2023-01-18T12:37:09.425Z,59.80
2023-01-18T12:39:53.134Z,59.80
2023-01-18T12:42:29.247Z,59.90
2023-01-18T12:45:10.625Z,59.90
2023-01-18T12:47:42.096Z,59.90
2023-01-18T12:50:23.257Z,60.00
2023-01-18T12:52:55.816Z,60.00
2023-01-18T12:55:26.241Z,60.00
2023-01-18T12:57:59.662Z,60.00
2023-01-18T13:00:34.198Z,60.10
2023-01-18T13:03:05.853Z,60.10
2023-01-18T13:05:50.812Z,60.10
2023-01-18T13:08:24.873Z,60.20
2023-01-18T13:10:54.226Z,60.20
2023-01-18T13:13:28.320Z,60.20
2023-01-18T13:16:02.982Z,60.30
2023-01-18T13:18:38.469Z,60.30
2023-01-18T13:21:15.813Z,60.30
2023-01-18T13:23:55.804Z,60.30
2023-01-18T13:26:28.307Z,60.30
2023-01-18T13:29:08.826Z,60.30
2023-01-18T13:31:37.402Z,60.40
2023-01-18T13:34:05.465Z,60.30
2023-01-18T13:36:45.598Z,60.30
2023-01-18T13:39:16.267Z,60.40
2023-01-18T13:42:09.958Z,60.40
2023-01-18T13:44:40.596Z,60.50
2023-01-18T13:47:42.776Z,60.40
2023-01-18T13:50:42.166Z,60.60
2023-01-18T13:53:31.662Z,60.60
2023-01-18T13:56:28.415Z,60.60
2023-01-18T13:58:59.827Z,60.70
2023-01-18T14:01:33.969Z,60.70
2023-01-18T14:04:25.898Z,60.90
2023-01-18T14:06:55.967Z,60.80
2023-01-18T14:09:35.223Z,60.90
2023-01-18T14:12:04.081Z,60.90
2023-01-18T14:14:34.155Z,60.90
2023-01-18T14:17:07.918Z,60.90
2023-01-18T14:20:03.225Z,61.00
2023-01-18T14:22:41.224Z,61.00
2023-01-18T14:25:25.900Z,60.90
2023-01-18T14:28:04.002Z,61.00
2023-01-18T14:30:35.140Z,61.00
2023-01-18T14:33:07.811Z,61.00
2023-01-18T14:35:36.570Z,61.00
2023-01-18T14:38:24.005Z,61.00
2023-01-18T14:40:55.912Z,61.00
2023-01-18T14:43:27.812Z,61.00
2023-01-18T14:46:00.133Z,61.00
2023-01-18T14:48:30.706Z,61.00
2023-01-18T14:51:00.606Z,61.00
2023-01-18T14:53:30.623Z,61.00
2023-01-18T14:56:09.121Z,61.00
2023-01-18T14:58:40.219Z,61.00
2023-01-18T15:01:09.369Z,61.00
2023-01-18T15:03:37.629Z,60.90
2023-01-18T15:06:13.493Z,61.00
2023-01-18T15:08:43.587Z,60.90
2023-01-18T15:11:13.247Z,60.90
2023-01-18T15:13:47.427Z,60.90
2023-01-18T15:16:18.184Z,60.90
2023-01-18T15:18:48.606Z,60.90
2023-01-18T15:21:22.228Z,60.80
2023-01-18T15:23:52.437Z,60.90
2023-01-18T15:26:40.305Z,60.80
2023-01-18T15:29:18.159Z,60.90
2023-01-18T15:31:54.308Z,60.90
2023-01-18T15:34:28.830Z,60.80
2023-01-18T15:36:58.352Z,60.80
2023-01-18T15:39:26.730Z,60.80
2023-01-18T15:41:58.205Z,60.80
2023-01-18T15:44:36.763Z,60.80
2023-01-18T15:47:16.439Z,60.80
2023-01-18T15:49:46.746Z,60.80
2023-01-18T15:52:15.036Z,60.70
2023-01-18T15:54:43.501Z,60.70
2023-01-18T15:57:15.663Z,60.70
2023-01-18T15:59:43.703Z,60.60
2023-01-18T16:02:19.467Z,60.60
2023-01-18T16:04:47.375Z,60.60
2023-01-18T16:07:26.100Z,60.60
2023-01-18T16:10:09.547Z,60.40
2023-01-18T16:12:38.612Z,60.50
2023-01-18T16:15:21.740Z,60.30
2023-01-18T16:17:49.480Z,60.30
2023-01-18T16:20:17.912Z,60.30
2023-01-18T16:22:46.369Z,60.20
2023-01-18T16:25:20.822Z,60.20
2023-01-18T16:27:52.028Z,60.30
2023-01-18T16:30:21.726Z,60.20
2023-01-18T16:32:49.926Z,60.20
2023-01-18T16:35:19.809Z,60.20
2023-01-18T16:37:47.848Z,60.00
2023-01-18T16:40:17.707Z,60.20
2023-01-18T16:43:04.785Z,60.20
2023-01-18T16:45:36.033Z,60.10
2023-01-18T16:48:04.391Z,60.10
2023-01-18T16:50:32.276Z,60.00
2023-01-18T16:52:59.960Z,60.00
2023-01-18T16:55:27.715Z,59.90
2023-01-18T16:57:55.411Z,59.90
2023-01-18T17:00:28.084Z,59.90
2023-01-18T17:02:55.847Z,59.90
2023-01-18T17:05:23.603Z,59.90
2023-01-18T17:07:52.468Z,59.90
2023-01-18T17:10:23.344Z,59.90
2023-01-18T17:12:51.039Z,59.90
2023-01-18T17:15:20.160Z,60.00
2023-01-18T17:17:50.195Z,60.10
2023-01-18T17:20:20.804Z,60.10
2023-01-18T17:22:48.491Z,60.30
2023-01-18T17:25:16.377Z,60.40
2023-01-18T17:27:44.266Z,60.50
2023-01-18T17:30:13.481Z,60.60
2023-01-18T17:32:41.261Z,60.70
2023-01-18T17:35:11.630Z,60.80
2023-01-18T17:40:22.727Z,60.80
2023-01-18T17:42:52.458Z,61.00
2023-01-18T17:45:20.180Z,61.00
2023-01-18T17:47:47.857Z,61.00
2023-01-18T17:50:24.724Z,61.10
2023-01-18T17:52:54.018Z,61.20
2023-01-18T17:55:27.522Z,61.10
2023-01-18T17:57:58.309Z,61.30
2023-01-18T18:00:26.373Z,61.20
2023-01-18T18:02:57.075Z,61.20
2023-01-18T18:05:26.484Z,61.30
2023-01-18T18:07:54.192Z,61.30
2023-01-18T18:10:21.906Z,61.30
2023-01-18T18:12:49.634Z,61.30
2023-01-18T18:15:17.516Z,61.30
2023-01-18T18:17:45.224Z,61.40
2023-01-18T18:20:13.203Z,61.40
2023-01-18T18:22:42.257Z,61.60
2023-01-18T18:25:10.644Z,61.70
2023-01-18T18:27:45.546Z,61.60
2023-01-18T18:30:14.131Z,61.60
2023-01-18T18:32:41.874Z,61.60
2023-01-18T18:35:26.575Z,61.70
2023-01-18T18:37:57.021Z,61.80
2023-01-18T18:40:25.161Z,62.00
2023-01-18T18:43:01.634Z,62.00
2023-01-18T18:45:31.348Z,62.00
2023-01-18T18:47:59.431Z,62.00
2023-01-18T18:50:27.179Z,61.90
2023-01-18T18:52:56.274Z,61.80
2023-01-18T18:55:24.395Z,61.80
2023-01-18T18:57:52.134Z,61.80
2023-01-18T19:00:20.692Z,61.80
2023-01-18T19:02:48.531Z,61.80
2023-01-18T19:05:16.568Z,61.80
2023-01-18T19:07:46.913Z,61.80
2023-01-18T19:10:16.076Z,61.80
2023-01-18T19:12:43.781Z,61.90
2023-01-18T19:15:12.243Z,61.90
2023-01-18T19:17:39.927Z,62.10
2023-01-18T19:20:09.913Z,62.00
2023-01-18T19:22:38.568Z,62.00
2023-01-18T19:25:08.953Z,62.00
2023-01-18T19:27:37.995Z,62.00
2023-01-18T19:30:14.418Z,62.00
2023-01-18T19:32:42.132Z,62.00
2023-01-18T19:35:10.306Z,62.10
2023-01-18T19:37:38.569Z,62.00
2023-01-18T19:40:07.715Z,62.10
2023-01-18T19:42:35.430Z,62.10
2023-01-18T19:45:06.907Z,62.10
2023-01-18T19:47:34.768Z,62.10
2023-01-18T19:50:03.480Z,62.00
2023-01-18T19:52:32.241Z,62.00
2023-01-18T19:55:00.114Z,61.90
2023-01-18T19:57:28.036Z,62.00
2023-01-18T19:59:56.934Z,62.00
2023-01-18T20:02:26.106Z,62.00
2023-01-18T20:04:53.898Z,62.00
2023-01-18T20:07:21.615Z,62.00
2023-01-18T20:09:49.293Z,62.00
2023-01-18T20:12:17.279Z,62.00
2023-01-18T20:14:45.263Z,62.00
2023-01-18T20:17:14.249Z,62.00
2023-01-18T20:19:44.074Z,62.00
2023-01-18T20:22:11.840Z,62.00
2023-01-18T20:24:39.551Z,62.00
2023-01-18T20:27:15.780Z,62.00
2023-01-18T20:29:44.189Z,62.00
2023-01-18T20:32:19.567Z,62.00
2023-01-18T20:34:49.023Z,62.10
2023-01-18T20:37:17.012Z,62.10
2023-01-18T20:39:45.269Z,62.10
2023-01-18T20:42:13.005Z,62.00
2023-01-18T20:44:41.110Z,62.00
2023-01-18T20:47:09.588Z,61.90
2023-01-18T20:49:40.126Z,62.00
2023-01-18T20:52:09.830Z,62.10
2023-01-18T20:54:37.707Z,62.10
2023-01-18T20:57:05.897Z,62.00
2023-01-18T20:59:33.893Z,61.90
2023-01-18T21:02:02.899Z,61.90
2023-01-18T21:04:31.053Z,61.90
2023-01-18T21:06:58.877Z,61.90
2023-01-18T21:09:28.282Z,61.80
2023-01-18T21:11:55.969Z,61.80
2023-01-18T21:14:23.777Z,61.80
2023-01-18T21:16:51.477Z,61.70
2023-01-18T21:19:19.215Z,61.80
2023-01-18T21:21:46.968Z,61.80
2023-01-18T21:24:14.798Z,61.80
2023-01-18T21:26:43.851Z,61.80
2023-01-18T21:29:11.579Z,61.70
2023-01-18T21:31:40.978Z,61.80
2023-01-18T21:34:08.807Z,62.60
2023-01-18T21:36:36.657Z,61.80
2023-01-18T21:39:04.464Z,61.80
2023-01-18T21:41:49.672Z,61.70
2023-01-18T21:44:36.606Z,61.80
2023-01-18T21:47:04.621Z,61.80
2023-01-18T21:52:56.848Z,61.80
2023-01-18T21:55:24.776Z,61.80
2023-01-18T21:58:06.440Z,61.90
2023-01-18T22:00:37.653Z,61.90
2023-01-18T22:03:05.621Z,61.80
2023-01-18T22:05:33.870Z,61.80
2023-01-18T22:08:02.004Z,61.90
2023-01-18T22:10:29.828Z,62.00
2023-01-18T22:12:57.836Z,62.00
2023-01-18T22:15:25.699Z,62.00
2023-01-18T22:17:54.730Z,62.00
2023-01-18T22:20:22.437Z,62.10
2023-01-18T22:22:50.393Z,62.10
2023-01-18T22:25:18.134Z,61.90
2023-01-18T22:27:45.971Z,62.10
2023-01-18T22:30:14.345Z,62.10
2023-01-18T22:32:42.041Z,62.10
2023-01-18T22:35:11.456Z,62.10
2023-01-18T22:37:39.169Z,62.10
2023-01-18T22:40:08.876Z,62.20
2023-01-18T22:42:36.593Z,62.00
2023-01-18T22:45:04.971Z,62.20
2023-01-18T22:47:32.695Z,62.10
2023-01-18T22:50:00.494Z,62.20
2023-01-18T22:52:29.529Z,62.20
2023-01-18T22:54:57.239Z,62.20
2023-01-18T22:57:24.930Z,62.20
2023-01-18T22:59:52.621Z,62.20
2023-01-18T23:02:20.343Z,62.30
2023-01-18T23:04:48.297Z,62.30
2023-01-18T23:07:16.126Z,62.30
2023-01-18T23:09:45.222Z,62.30
2023-01-18T23:12:12.996Z,62.30
2023-01-18T23:14:58.165Z,62.30
2023-01-18T23:17:42.196Z,62.30
2023-01-18T23:20:14.664Z,62.40
2023-01-18T23:22:42.479Z,62.40
2023-01-18T23:25:11.623Z,62.40
2023-01-18T23:27:39.323Z,62.40
2023-01-18T23:30:08.072Z,62.40
2023-01-18T23:32:37.204Z,62.40
2023-01-18T23:35:05.776Z,62.40
2023-01-18T23:37:33.822Z,62.40
2023-01-18T23:40:19.193Z,62.50
2023-01-18T23:43:05.942Z,62.40
2023-01-18T23:45:51.328Z,62.30
2023-01-18T23:48:38.441Z,62.30
2023-01-18T23:51:24.411Z,62.40
2023-01-18T23:54:10.781Z,62.50
2023-01-18T23:56:38.469Z,62.50
2023-01-18T23:59:07.528Z,62.40
